Time;durP1;ratioP1;P1;durP2;ratioP2;P2;SDS_P1;SDS_P2;PMS_P1;PMS_P2;Temp;Humidity;BMP_temperature;BMP_pressure;BME280_temperature;BME280_humidity;BME280_pressure;Samples;Min_cycle;Max_cycle;Signal;HPM_P1;HPM_P2
2022/02/18 00:01:18;;;;;;;3.20;1.00;;;8.70;99.90;;;;;;6297383;22;20206;-90
2022/02/18 00:03:52;;;;;;;1.27;0.90;;;8.50;99.90;;;;;;6297678;22;20622;-93
2022/02/18 00:06:23;;;;;;;1.90;0.80;;;8.50;99.90;;;;;;6296369;22;20171;-92
2022/02/18 00:08:54;;;;;;;1.13;0.70;;;8.60;99.90;;;;;;6297364;22;20167;-93
2022/02/18 00:11:25;;;;;;;1.90;0.93;;;8.60;99.90;;;;;;6297894;22;20167;-93
2022/02/18 00:13:58;;;;;;;1.03;0.80;;;8.60;99.90;;;;;;6298360;22;20182;-93
2022/02/18 00:16:29;;;;;;;2.67;0.90;;;8.50;99.90;;;;;;6298777;22;20178;-93
2022/02/18 00:19:03;;;;;;;2.60;1.00;;;8.50;99.90;;;;;;6296474;22;20186;-92
2022/02/18 00:21:35;;;;;;;1.50;0.90;;;8.40;99.90;;;;;;6298641;22;20210;-93
2022/02/18 00:24:09;;;;;;;0.93;0.70;;;8.40;99.90;;;;;;6303515;22;20178;-92
2022/02/18 00:26:40;;;;;;;3.17;0.60;;;8.50;99.90;;;;;;6300716;22;20164;-94
2022/02/18 00:29:12;;;;;;;2.77;0.90;;;8.50;99.90;;;;;;6297068;22;20168;-93
2022/02/18 00:31:43;;;;;;;1.40;0.73;;;8.40;99.90;;;;;;6297409;22;20179;-93
2022/02/18 00:34:17;;;;;;;1.23;0.90;;;8.50;99.90;;;;;;6296573;22;20197;-93
2022/02/18 00:36:48;;;;;;;1.07;0.70;;;8.50;99.90;;;;;;6296726;22;20168;-94
2022/02/18 00:39:21;;;;;;;1.17;0.90;;;8.50;99.90;;;;;;6271369;22;20912;-93
2022/02/18 00:41:53;;;;;;;1.03;0.80;;;8.60;99.90;;;;;;6296049;22;20252;-94
2022/02/18 00:44:24;;;;;;;1.83;0.90;;;8.70;99.90;;;;;;6295696;22;20174;-94
2022/02/18 00:46:55;;;;;;;3.90;0.73;;;8.60;99.90;;;;;;6295503;22;20614;-93
2022/02/18 00:49:28;;;;;;;2.00;0.80;;;8.60;99.90;;;;;;6297071;22;20167;-93
2022/02/18 00:51:59;;;;;;;3.03;0.90;;;8.50;99.90;;;;;;6294647;22;20172;-93
2022/02/18 00:54:30;;;;;;;2.70;1.30;;;8.50;99.90;;;;;;6294056;22;20190;-94
2022/02/18 00:57:02;;;;;;;2.00;0.83;;;8.40;99.90;;;;;;6294514;22;20181;-94
2022/02/18 00:59:34;;;;;;;5.07;0.97;;;8.40;99.90;;;;;;6274792;22;20167;-93
2022/02/18 01:07:42;;;;;;;1.43;0.73;;;8.40;99.90;;;;;;6331011;22;20189;-91
2022/02/18 01:10:14;;;;;;;1.27;0.73;;;8.40;99.90;;;;;;6298822;22;20162;-91
2022/02/18 01:12:46;;;;;;;1.87;0.90;;;8.40;99.90;;;;;;6336003;22;20190;-92
2022/02/18 01:15:18;;;;;;;2.03;0.90;;;8.40;99.90;;;;;;6319134;22;20201;-90
2022/02/18 01:17:50;;;;;;;2.67;0.73;;;8.40;99.90;;;;;;6296896;22;20170;-93
2022/02/18 01:20:22;;;;;;;4.00;1.17;;;8.30;99.90;;;;;;6318048;22;20384;-92
2022/02/18 01:22:55;;;;;;;1.73;0.97;;;8.30;99.90;;;;;;6317687;22;20174;-93
2022/02/18 01:25:26;;;;;;;3.43;0.90;;;8.30;99.90;;;;;;6290886;22;20170;-93
2022/02/18 01:27:57;;;;;;;1.53;1.10;;;8.30;99.90;;;;;;6289252;22;20174;-94
2022/02/18 01:30:29;;;;;;;3.83;0.80;;;8.20;99.90;;;;;;6317684;22;20163;-94
2022/02/18 01:33:01;;;;;;;2.23;0.80;;;8.20;99.90;;;;;;6317129;22;20247;-93
2022/02/18 01:35:32;;;;;;;3.43;1.03;;;8.20;99.90;;;;;;6316263;22;20203;-93
2022/02/18 01:38:06;;;;;;;2.27;0.90;;;8.20;99.90;;;;;;6315001;22;20201;-94
2022/02/18 01:40:36;;;;;;;3.03;0.90;;;8.20;99.90;;;;;;6316664;22;20177;-93
2022/02/18 01:43:08;;;;;;;1.83;0.93;;;8.20;99.90;;;;;;6296623;22;20174;-93
2022/02/18 01:45:40;;;;;;;1.60;1.00;;;8.20;99.90;;;;;;6299638;22;20184;-93
2022/02/18 01:48:12;;;;;;;3.00;1.00;;;8.10;99.90;;;;;;6319627;22;20190;-93
2022/02/18 01:50:45;;;;;;;3.23;1.20;;;8.20;99.90;;;;;;6286211;22;20189;-94
2022/02/18 01:53:18;;;;;;;3.03;1.30;;;8.20;99.90;;;;;;6325784;22;20174;-92
2022/02/18 01:55:49;;;;;;;1.43;0.80;;;8.10;99.90;;;;;;6328636;22;20178;-92
2022/02/18 01:58:26;;;;;;;1.67;1.10;;;8.10;99.90;;;;;;6327242;22;20177;-93
2022/02/18 02:00:57;;;;;;;1.67;0.97;;;8.10;99.90;;;;;;6313331;22;20162;-93
2022/02/18 02:03:29;;;;;;;2.70;1.17;;;8.10;99.90;;;;;;6314581;22;20493;-93
2022/02/18 02:06:00;;;;;;;4.97;1.30;;;8.10;99.90;;;;;;6312769;22;20174;-92
2022/02/18 02:08:37;;;;;;;3.57;1.20;;;8.00;99.90;;;;;;6285083;22;20208;-93
2022/02/18 02:11:08;;;;;;;5.13;1.50;;;8.00;99.90;;;;;;6312897;22;20636;-92
2022/02/18 02:13:51;;;;;;;2.90;1.10;;;8.00;99.90;;;;;;6314013;22;20174;-94
2022/02/18 02:16:22;;;;;;;4.93;1.70;;;8.00;99.90;;;;;;6314787;22;20194;-93
2022/02/18 02:18:53;;;;;;;3.93;1.70;;;8.00;99.90;;;;;;6313620;22;20189;-93
2022/02/18 02:21:26;;;;;;;5.07;1.40;;;8.00;99.90;;;;;;6314307;22;20255;-94
2022/02/18 02:24:02;;;;;;;6.03;1.40;;;8.00;99.90;;;;;;6313299;22;20170;-93
2022/02/18 02:26:33;;;;;;;3.80;1.30;;;8.00;99.90;;;;;;6314688;22;20166;-93
2022/02/18 02:29:05;;;;;;;2.70;1.47;;;8.00;99.90;;;;;;6313917;22;20200;-92
2022/02/18 02:31:36;;;;;;;3.60;1.63;;;8.00;99.90;;;;;;6313394;22;20171;-93
2022/02/18 02:34:08;;;;;;;2.13;1.30;;;7.90;99.90;;;;;;6320991;22;20193;-95
2022/02/18 02:36:39;;;;;;;4.00;1.50;;;7.90;99.90;;;;;;6322721;22;20167;-95
2022/02/18 02:39:12;;;;;;;1.80;1.30;;;7.90;99.90;;;;;;6329311;22;20177;-94
2022/02/18 02:41:46;;;;;;;7.80;1.40;;;7.90;99.90;;;;;;6303898;22;20198;-94
2022/02/18 02:44:17;;;;;;;3.13;1.60;;;7.80;99.90;;;;;;6327195;22;20166;-93
2022/02/18 02:46:49;;;;;;;5.37;1.50;;;7.70;99.90;;;;;;6327459;22;20181;-93
2022/02/18 02:49:21;;;;;;;3.67;1.40;;;7.70;99.90;;;;;;6329148;22;20185;-93
2022/02/18 02:51:52;;;;;;;4.20;1.40;;;7.70;99.90;;;;;;6327357;22;20167;-92
2022/02/18 02:54:26;;;;;;;4.20;1.37;;;7.60;99.90;;;;;;6300807;22;20171;-93
2022/02/18 02:56:58;;;;;;;3.50;1.70;;;7.60;99.90;;;;;;6326190;22;20245;-93
2022/02/18 02:59:30;;;;;;;3.57;1.87;;;7.60;99.90;;;;;;6327211;22;20204;-92
2022/02/18 03:02:01;;;;;;;5.00;1.73;;;7.60;99.90;;;;;;6326901;22;20198;-93
2022/02/18 03:04:32;;;;;;;3.43;1.77;;;7.60;99.90;;;;;;6333543;22;20177;-93
2022/02/18 03:07:04;;;;;;;4.63;1.60;;;7.60;99.90;;;;;;6329683;22;20178;-93
2022/02/18 03:09:54;;;;;;;4.73;1.63;;;7.60;99.90;;;;;;6304361;22;20320;-93
2022/02/18 03:12:26;;;;;;;5.93;1.87;;;7.60;99.90;;;;;;6328993;22;20174;-92
2022/02/18 03:14:58;;;;;;;2.27;1.50;;;7.60;99.90;;;;;;6328358;22;20180;-93
2022/02/18 03:17:30;;;;;;;5.00;1.80;;;7.60;99.90;;;;;;6327755;22;20479;-93
2022/02/18 03:20:02;;;;;;;5.20;1.97;;;7.60;99.90;;;;;;6327187;22;20186;-94
2022/02/18 03:22:33;;;;;;;3.90;2.33;;;7.60;99.90;;;;;;6300106;22;20209;-91
2022/02/18 03:25:08;;;;;;;5.23;2.20;;;7.50;99.90;;;;;;6326982;22;20182;-92
2022/02/18 03:27:42;;;;;;;5.83;2.57;;;7.50;99.90;;;;;;6331931;22;20176;-91
2022/02/18 03:35:37;;;;;;;5.27;2.50;;;7.50;99.90;;;;;;6361683;22;20215;-93
2022/02/18 03:38:09;;;;;;;3.50;2.10;;;7.40;99.90;;;;;;6359380;22;20181;-93
2022/02/18 03:40:42;;;;;;;4.53;2.40;;;7.30;99.90;;;;;;6349195;22;20180;-93
2022/02/18 03:43:13;;;;;;;3.10;2.43;;;7.30;99.90;;;;;;6358304;22;20197;-94
2022/02/18 03:45:43;;;;;;;4.30;2.70;;;7.20;99.90;;;;;;6360025;22;20197;-93
2022/02/18 03:48:15;;;;;;;6.53;2.73;;;7.20;99.90;;;;;;6332978;22;20213;-92
2022/02/18 03:50:47;;;;;;;5.97;3.53;;;7.10;99.90;;;;;;6340834;22;20449;-92
2022/02/18 03:53:18;;;;;;;7.73;2.80;;;7.10;99.90;;;;;;6362194;22;20204;-93
2022/02/18 03:55:52;;;;;;;4.77;3.13;;;7.10;99.90;;;;;;6358315;22;20183;-93
2022/02/18 03:58:23;;;;;;;3.77;3.03;;;7.00;99.90;;;;;;6356068;22;20170;-94
2022/02/18 04:00:56;;;;;;;5.13;2.57;;;7.00;99.90;;;;;;6362812;22;20172;-94
2022/02/18 04:03:28;;;;;;;5.67;2.43;;;7.00;99.90;;;;;;6360477;22;20205;-92
2022/02/18 04:05:59;;;;;;;4.10;2.50;;;7.00;99.90;;;;;;6362236;22;20163;-93
2022/02/18 04:08:31;;;;;;;7.43;2.47;;;7.00;99.90;;;;;;6362950;22;20570;-93
2022/02/18 04:11:04;;;;;;;3.43;2.10;;;7.00;99.90;;;;;;6361127;22;20177;-93
2022/02/18 04:13:35;;;;;;;3.00;1.90;;;7.00;99.90;;;;;;6362374;22;20188;-93
2022/02/18 04:16:06;;;;;;;2.43;1.80;;;7.00;99.90;;;;;;6364382;22;20166;-92
2022/02/18 04:18:38;;;;;;;3.07;2.00;;;7.10;99.90;;;;;;6358474;22;20188;-93
2022/02/18 04:21:09;;;;;;;2.03;1.80;;;7.10;99.90;;;;;;6363889;22;20217;-93
2022/02/18 04:29:04;;;;;;;3.83;2.00;;;7.10;99.90;;;;;;6297850;22;20720;-87
2022/02/18 04:31:36;;;;;;;3.07;1.97;;;7.10;99.90;;;;;;6365088;22;20167;-93
2022/02/18 04:34:07;;;;;;;3.00;2.07;;;7.10;99.90;;;;;;6361801;22;20225;-90
2022/02/18 04:36:39;;;;;;;4.23;2.00;;;7.10;99.90;;;;;;6366400;22;20245;-95
2022/02/18 04:39:12;;;;;;;2.87;2.10;;;7.10;99.90;;;;;;6368189;22;20221;-92
2022/02/18 04:41:43;;;;;;;4.70;2.13;;;7.10;99.90;;;;;;6363497;22;20177;-94
2022/02/18 04:44:16;;;;;;;4.10;2.00;;;7.10;99.90;;;;;;6361768;22;20190;-94
2022/02/18 04:46:47;;;;;;;3.47;2.10;;;7.10;99.90;;;;;;6362235;22;20162;-93
2022/02/18 04:49:24;;;;;;;3.13;1.90;;;7.10;99.90;;;;;;6359564;22;20170;-93
2022/02/18 04:52:15;;;;;;;2.90;2.27;;;7.20;99.90;;;;;;6358349;22;20180;-94
2022/02/18 04:54:46;;;;;;;2.47;2.27;;;7.20;99.90;;;;;;6359388;22;20173;-92
2022/02/18 04:57:18;;;;;;;4.20;2.60;;;7.20;99.90;;;;;;6358986;22;20189;-94
2022/02/18 04:59:51;;;;;;;3.37;2.10;;;7.30;99.90;;;;;;6360529;22;20170;-94
2022/02/18 05:02:22;;;;;;;3.87;2.20;;;7.30;99.90;;;;;;6359071;22;20173;-93
2022/02/18 05:04:54;;;;;;;3.53;2.60;;;7.40;99.90;;;;;;6358717;22;20185;-93
2022/02/18 05:07:25;;;;;;;2.87;2.37;;;7.40;99.90;;;;;;6356044;22;20170;-94
2022/02/18 05:09:57;;;;;;;5.47;2.63;;;7.30;99.90;;;;;;6357347;22;20162;-94
2022/02/18 05:12:28;;;;;;;6.27;2.77;;;7.30;99.90;;;;;;6330722;22;20180;-94
2022/02/18 05:15:00;;;;;;;6.47;2.90;;;7.10;99.90;;;;;;6359870;22;20162;-93
2022/02/18 05:17:31;;;;;;;3.23;2.83;;;7.00;99.90;;;;;;6361183;22;20153;-93
2022/02/18 05:20:02;;;;;;;4.77;3.07;;;7.00;99.90;;;;;;6351280;22;20205;-91
2022/02/18 05:22:33;;;;;;;5.70;3.57;;;7.00;99.90;;;;;;6364621;22;20188;-94
2022/02/18 05:25:04;;;;;;;8.60;4.00;;;7.00;99.90;;;;;;6364780;22;20166;-93
2022/02/18 05:27:40;;;;;;;4.50;3.70;;;7.00;99.90;;;;;;6360762;22;20166;-94
2022/02/18 05:30:16;;;;;;;4.83;3.13;;;7.00;99.90;;;;;;6356838;22;20177;-94
2022/02/18 05:32:52;;;;;;;4.40;3.33;;;6.90;99.90;;;;;;6359683;22;20211;-92
2022/02/18 05:35:25;;;;;;;3.33;2.77;;;6.90;99.90;;;;;;6359370;22;20170;-94
2022/02/18 05:37:56;;;;;;;3.50;3.07;;;6.90;99.90;;;;;;6351536;22;20213;-94
2022/02/18 05:40:27;;;;;;;5.87;3.47;;;6.90;99.90;;;;;;6349988;22;20279;-93
2022/02/18 05:42:58;;;;;;;4.73;2.93;;;6.80;99.90;;;;;;6346230;22;20220;-92
2022/02/18 05:45:32;;;;;;;3.70;3.00;;;6.80;99.90;;;;;;6363599;22;20164;-92
2022/02/18 05:48:03;;;;;;;3.33;3.03;;;6.70;99.90;;;;;;6361662;22;20177;-93
2022/02/18 05:50:34;;;;;;;4.37;3.17;;;6.60;99.90;;;;;;6362811;22;20173;-93
2022/02/18 05:53:05;;;;;;;3.80;3.50;;;6.60;99.90;;;;;;6366585;22;20161;-93
2022/02/18 05:55:36;;;;;;;4.57;3.90;;;6.50;99.90;;;;;;6366240;22;20161;-93
2022/02/18 05:58:07;;;;;;;5.07;4.27;;;6.40;99.90;;;;;;6364754;22;20228;-92
2022/02/18 06:00:41;;;;;;;5.70;3.97;;;6.30;99.90;;;;;;6311822;22;20194;-92
2022/02/18 06:03:11;;;;;;;5.40;3.80;;;6.20;99.90;;;;;;6362977;22;20337;-93
2022/02/18 06:05:43;;;;;;;4.67;4.10;;;6.10;99.90;;;;;;6356596;22;20189;-93
2022/02/18 06:08:14;;;;;;;5.90;4.13;;;6.00;99.90;;;;;;6352466;22;20173;-93
2022/02/18 06:10:45;;;;;;;4.83;4.07;;;5.90;99.90;;;;;;6343427;22;20196;-92
2022/02/18 06:13:18;;;;;;;6.27;4.60;;;5.90;99.90;;;;;;6351580;22;20176;-93
2022/02/18 06:15:51;;;;;;;5.40;4.90;;;5.80;99.90;;;;;;6351662;22;20166;-92
2022/02/18 06:18:22;;;;;;;5.70;4.90;;;5.80;99.90;;;;;;6349514;22;20170;-91
2022/02/18 06:20:53;;;;;;;5.23;4.73;;;5.70;99.90;;;;;;6349981;22;20173;-92
2022/02/18 06:23:24;;;;;;;6.63;5.30;;;5.60;99.90;;;;;;6361094;22;20236;-92
2022/02/18 06:25:56;;;;;;;7.87;5.80;;;5.60;99.90;;;;;;6357912;22;20174;-92
2022/02/18 06:28:27;;;;;;;6.60;5.90;;;5.50;99.90;;;;;;6353095;22;20177;-93
2022/02/18 06:31:00;;;;;;;6.90;5.50;;;5.50;99.90;;;;;;6362880;22;20157;-93
2022/02/18 06:33:31;;;;;;;7.27;4.97;;;5.40;99.90;;;;;;6363027;22;20166;-93
2022/02/18 06:36:02;;;;;;;9.40;5.53;;;5.30;99.90;;;;;;6356957;22;20166;-93
2022/02/18 06:38:34;;;;;;;6.80;5.33;;;5.30;99.90;;;;;;6351879;22;20173;-93
2022/02/18 06:41:06;;;;;;;6.77;5.13;;;5.20;99.90;;;;;;6348243;22;20166;-93
2022/02/18 06:43:37;;;;;;;6.50;5.17;;;5.20;99.90;;;;;;6356450;22;20201;-92
2022/02/18 06:46:10;;;;;;;7.73;5.03;;;5.10;99.90;;;;;;6329900;22;20173;-92
2022/02/18 06:48:43;;;;;;;6.50;5.07;;;5.10;99.90;;;;;;6362446;22;20163;-93
2022/02/18 06:51:14;;;;;;;5.50;4.83;;;5.00;99.90;;;;;;6363851;22;20165;-92
2022/02/18 06:53:45;;;;;;;6.23;4.53;;;5.00;99.90;;;;;;6364556;22;20170;-92
2022/02/18 06:56:16;;;;;;;5.37;4.63;;;5.00;99.90;;;;;;6349171;22;20221;-92
2022/02/18 06:58:47;;;;;;;5.40;4.10;;;4.90;99.90;;;;;;6363876;22;20169;-92
2022/02/18 07:01:22;;;;;;;6.50;4.70;;;4.80;99.90;;;;;;6365508;22;20175;-92
2022/02/18 07:03:54;;;;;;;5.57;4.57;;;4.80;99.90;;;;;;6364955;22;20219;-94
2022/02/18 07:06:26;;;;;;;6.57;4.20;;;4.80;99.90;;;;;;6355721;22;20176;-91
2022/02/18 07:08:57;;;;;;;5.13;3.80;;;4.80;99.90;;;;;;6358549;22;20177;-92
2022/02/18 07:11:28;;;;;;;5.87;3.90;;;4.80;99.90;;;;;;6358158;22;20182;-94
2022/02/18 07:13:59;;;;;;;5.90;3.70;;;4.80;99.90;;;;;;6355841;22;20165;-91
2022/02/18 07:16:33;;;;;;;5.77;3.67;;;4.90;99.90;;;;;;6355476;22;20244;-93
2022/02/18 07:19:06;;;;;;;9.23;4.40;;;4.90;99.90;;;;;;6353320;22;20165;-92
2022/02/18 07:21:37;;;;;;;5.07;3.50;;;4.90;99.90;;;;;;6354573;22;20618;-92
2022/02/18 07:24:09;;;;;;;4.17;3.20;;;5.00;99.90;;;;;;6353772;22;20194;-92
2022/02/18 07:26:41;;;;;;;5.63;4.20;;;5.00;99.90;;;;;;6357381;22;20203;-94
2022/02/18 07:29:12;;;;;;;5.63;3.07;;;5.00;99.90;;;;;;6353384;22;20203;-90
2022/02/18 07:31:45;;;;;;;5.90;3.87;;;5.10;99.90;;;;;;6353107;22;20173;-93
2022/02/18 07:34:16;;;;;;;5.90;3.33;;;5.10;99.90;;;;;;6351157;22;20500;-93
2022/02/18 07:36:48;;;;;;;5.10;3.40;;;5.20;99.90;;;;;;6319283;22;20173;-91
2022/02/18 07:39:20;;;;;;;3.30;3.00;;;5.20;99.90;;;;;;6323908;22;20206;-92
2022/02/18 07:41:52;;;;;;;3.67;2.93;;;5.20;99.90;;;;;;6348330;22;20173;-92
2022/02/18 07:44:24;;;;;;;4.23;3.33;;;5.20;99.90;;;;;;6352914;22;20212;-92
2022/02/18 07:46:57;;;;;;;3.33;2.80;;;5.10;99.90;;;;;;6348696;22;20235;-93
2022/02/18 07:49:50;;;;;;;4.07;3.17;;;5.00;99.90;;;;;;6358912;22;20233;-93
2022/02/18 07:52:22;;;;;;;5.53;3.40;;;5.00;99.90;;;;;;6353868;22;20182;-93
2022/02/18 07:54:54;;;;;;;5.47;3.10;;;5.00;99.90;;;;;;6352910;22;20166;-93
2022/02/18 07:57:26;;;;;;;5.33;3.40;;;5.00;99.90;;;;;;6344224;22;20216;-94
2022/02/18 07:59:56;;;;;;;2.97;2.53;;;4.90;99.90;;;;;;6349217;22;20227;-92
2022/02/18 08:02:30;;;;;;;4.90;3.03;;;4.90;99.90;;;;;;6345885;22;20162;-93
2022/02/18 08:05:01;;;;;;;6.70;3.20;;;4.80;99.90;;;;;;6318847;22;20225;-93
2022/02/18 08:07:32;;;;;;;5.90;3.00;;;4.80;99.90;;;;;;6355229;22;20175;-93
2022/02/18 08:10:05;;;;;;;4.23;3.03;;;4.80;99.90;;;;;;6350407;22;20193;-92
2022/02/18 08:12:37;;;;;;;4.37;3.60;;;4.80;99.90;;;;;;6365026;22;20193;-92
2022/02/18 08:15:08;;;;;;;6.47;3.30;;;4.90;99.90;;;;;;6343905;22;20166;-92
2022/02/18 08:17:42;;;;;;;4.53;3.43;;;4.90;99.90;;;;;;6343962;22;20176;-92
2022/02/18 08:20:14;;;;;;;5.50;3.63;;;5.00;99.90;;;;;;6344220;22;20166;-92
2022/02/18 08:22:45;;;;;;;4.43;3.33;;;5.10;99.90;;;;;;6344222;22;20185;-92
2022/02/18 08:25:16;;;;;;;3.93;3.13;;;5.10;99.90;;;;;;6345541;22;20194;-93
2022/02/18 08:27:47;;;;;;;4.83;3.23;;;5.20;99.90;;;;;;6344675;22;20255;-92
2022/02/18 08:30:18;;;;;;;3.97;3.10;;;5.30;99.90;;;;;;6344160;22;20632;-92
2022/02/18 08:32:52;;;;;;;3.57;2.60;;;5.30;99.90;;;;;;6346254;22;20178;-93
2022/02/18 08:35:24;;;;;;;5.87;2.97;;;5.40;99.90;;;;;;6345854;22;20157;-93
2022/02/18 08:37:55;;;;;;;4.60;2.87;;;5.40;99.90;;;;;;6351496;22;20216;-92
2022/02/18 08:40:26;;;;;;;4.17;2.60;;;5.50;99.90;;;;;;6344790;22;20296;-92
2022/02/18 08:42:57;;;;;;;3.20;2.77;;;5.50;99.90;;;;;;6344657;22;20179;-93
2022/02/18 08:45:29;;;;;;;4.83;2.57;;;5.60;99.90;;;;;;6343534;22;20201;-94
2022/02/18 08:48:02;;;;;;;4.20;2.70;;;5.60;99.90;;;;;;6317687;22;20608;-93
2022/02/18 08:50:33;;;;;;;3.87;2.53;;;5.60;99.90;;;;;;6344565;22;20192;-93
2022/02/18 08:53:04;;;;;;;2.67;2.40;;;5.70;99.90;;;;;;6345090;22;20214;-93
2022/02/18 08:55:35;;;;;;;3.13;2.50;;;5.70;99.90;;;;;;6349585;22;20173;-92
2022/02/18 08:58:07;;;;;;;4.27;2.57;;;5.70;99.90;;;;;;6344568;22;20170;-92
2022/02/18 09:00:38;;;;;;;6.23;2.40;;;5.70;99.90;;;;;;6345274;22;20501;-93
2022/02/18 09:03:15;;;;;;;3.00;2.50;;;5.70;99.90;;;;;;6353432;22;20150;-92
2022/02/18 09:05:47;;;;;;;4.70;2.50;;;5.70;99.90;;;;;;6366155;22;20201;-92
2022/02/18 09:08:21;;;;;;;3.27;2.67;;;5.80;99.90;;;;;;6366247;22;20154;-92
2022/02/18 09:10:52;;;;;;;2.40;2.20;;;5.80;99.90;;;;;;6338836;22;20173;-92
2022/02/18 09:13:24;;;;;;;3.60;2.33;;;5.80;99.90;;;;;;6364447;22;20170;-94
2022/02/18 09:15:56;;;;;;;5.87;2.23;;;5.80;99.90;;;;;;6365955;22;20154;-93
2022/02/18 09:18:29;;;;;;;4.07;2.40;;;5.80;99.90;;;;;;6363913;22;20187;-93
2022/02/18 09:20:59;;;;;;;4.23;2.33;;;5.90;99.90;;;;;;6365703;22;20166;-92
2022/02/18 09:23:50;;;;;;;3.57;2.13;;;5.90;99.90;;;;;;6354716;22;20212;-93
2022/02/18 09:26:25;;;;;;;3.23;2.43;;;5.90;99.90;;;;;;6364653;22;20209;-93
2022/02/18 09:28:57;;;;;;;4.83;2.47;;;5.90;99.90;;;;;;6339699;22;20194;-93
2022/02/18 09:31:28;;;;;;;3.23;2.37;;;5.90;99.90;;;;;;6364700;22;20207;-93
2022/02/18 09:34:02;;;;;;;3.97;2.50;;;5.90;99.90;;;;;;6365265;22;20193;-92
2022/02/18 09:36:33;;;;;;;3.57;2.50;;;5.90;99.90;;;;;;6364266;22;20203;-92
2022/02/18 09:39:04;;;;;;;3.50;2.20;;;5.90;99.90;;;;;;6362055;22;20212;-94
2022/02/18 09:41:36;;;;;;;3.53;2.33;;;5.80;99.90;;;;;;6358218;22;20165;-92
2022/02/18 09:44:09;;;;;;;4.27;2.73;;;5.80;99.90;;;;;;6364986;22;20624;-93
2022/02/18 09:46:42;;;;;;;5.03;2.37;;;5.90;99.90;;;;;;6361439;22;20197;-93
2022/02/18 09:49:14;;;;;;;4.77;2.73;;;5.90;99.90;;;;;;6361799;22;20196;-92
2022/02/18 09:51:46;;;;;;;3.87;2.80;;;5.90;99.90;;;;;;6358703;22;20165;-93
2022/02/18 09:54:17;;;;;;;3.87;2.70;;;5.80;99.90;;;;;;6361231;22;20180;-93
2022/02/18 09:56:48;;;;;;;4.70;2.43;;;5.80;99.90;;;;;;6357844;22;20543;-93
2022/02/18 09:59:19;;;;;;;5.10;2.57;;;5.80;99.90;;;;;;6356829;22;20169;-92
2022/02/18 10:01:51;;;;;;;3.07;2.30;;;5.80;99.90;;;;;;6359141;22;20209;-94
2022/02/18 10:04:26;;;;;;;4.77;2.63;;;5.80;99.90;;;;;;6357138;22;20665;-94
2022/02/18 10:06:58;;;;;;;3.47;2.47;;;5.90;99.90;;;;;;6356107;22;20643;-92
2022/02/18 10:09:42;;;;;;;3.87;2.40;;;5.90;99.90;;;;;;6319127;22;20503;-93
2022/02/18 10:12:16;;;;;;;3.67;2.40;;;5.90;99.90;;;;;;6345895;22;20674;-94
2022/02/18 10:14:57;;;;;;;5.37;2.50;;;5.90;99.90;;;;;;6346940;22;20184;-94
2022/02/18 10:17:38;;;;;;;2.30;1.90;;;6.00;99.90;;;;;;6347428;22;20173;-93
2022/02/18 10:20:22;;;;;;;4.93;2.00;;;6.00;99.90;;;;;;6352751;22;20159;-93
2022/02/18 10:22:57;;;;;;;2.33;1.77;;;6.00;99.90;;;;;;6365850;22;20183;-93
2022/02/18 10:25:29;;;;;;;3.33;2.30;;;5.90;99.90;;;;;;6365121;22;20193;-93
2022/02/18 10:28:00;;;;;;;4.00;2.37;;;5.90;99.90;;;;;;6363931;22;20157;-92
2022/02/18 10:30:32;;;;;;;2.90;2.60;;;5.90;99.90;;;;;;6359227;22;20234;-92
2022/02/18 10:33:13;;;;;;;3.87;2.70;;;5.80;99.90;;;;;;6357663;22;20181;-92
2022/02/18 10:35:47;;;;;;;3.73;2.27;;;5.80;99.90;;;;;;6363994;22;20180;-93
2022/02/18 10:38:19;;;;;;;3.43;2.20;;;5.80;99.90;;;;;;6364424;22;20166;-93
2022/02/18 10:40:51;;;;;;;5.23;2.23;;;5.80;99.90;;;;;;6363883;22;20172;-91
2022/02/18 10:43:25;;;;;;;2.50;1.90;;;5.90;99.90;;;;;;6359029;22;20168;-93
2022/02/18 10:45:59;;;;;;;2.90;2.13;;;5.90;99.90;;;;;;6356069;22;20199;-91
2022/02/18 10:48:35;;;;;;;2.87;2.00;;;5.90;99.90;;;;;;6347005;22;20174;-93
2022/02/18 10:51:14;;;;;;;3.10;2.00;;;5.90;99.90;;;;;;6347853;22;20165;-93
2022/02/18 10:53:47;;;;;;;3.57;2.10;;;5.80;99.90;;;;;;6346018;22;20210;-92
2022/02/18 10:56:20;;;;;;;2.40;1.87;;;5.90;99.90;;;;;;6345730;22;20695;-93
2022/02/18 10:58:53;;;;;;;3.07;1.70;;;5.90;99.90;;;;;;6343956;22;20174;-92
2022/02/18 11:01:27;;;;;;;1.87;1.67;;;5.90;99.90;;;;;;6345339;22;20170;-94
2022/02/18 11:04:02;;;;;;;3.33;1.73;;;5.90;99.90;;;;;;6344976;22;20200;-93
2022/02/18 11:06:37;;;;;;;4.33;1.67;;;6.00;99.90;;;;;;6343975;22;20211;-93
2022/02/18 11:09:10;;;;;;;5.00;1.83;;;5.90;99.90;;;;;;6344035;22;20166;-93
2022/02/18 11:11:43;;;;;;;2.70;1.67;;;6.00;99.90;;;;;;6343920;22;20238;-93
2022/02/18 11:14:17;;;;;;;2.80;1.30;;;5.90;99.90;;;;;;6343393;22;20178;-92
2022/02/18 11:16:52;;;;;;;1.70;1.33;;;5.90;99.90;;;;;;6342841;22;20165;-94
2022/02/18 11:19:24;;;;;;;2.17;1.50;;;5.80;99.90;;;;;;6343289;22;20166;-94
2022/02/18 11:22:17;;;;;;;2.33;1.70;;;5.80;99.90;;;;;;6343575;22;20177;-92
2022/02/18 11:24:49;;;;;;;1.60;1.30;;;5.80;99.90;;;;;;6345324;22;20173;-93
2022/02/18 11:27:20;;;;;;;2.47;1.60;;;5.80;99.90;;;;;;6344058;22;20245;-93
2022/02/18 11:29:51;;;;;;;2.17;1.53;;;5.70;99.90;;;;;;6344761;22;20174;-94
2022/02/18 11:32:27;;;;;;;2.37;1.30;;;5.80;99.90;;;;;;6347990;22;20172;-93
2022/02/18 11:35:19;;;;;;;2.90;1.80;;;5.70;99.90;;;;;;6320487;22;20169;-91
2022/02/18 11:38:29;;;;;;;3.40;1.83;;;5.70;99.90;;;;;;6352088;22;20249;-92
2022/02/18 11:41:12;;;;;;;1.67;1.50;;;5.70;99.90;;;;;;6344416;22;20573;-94
2022/02/18 11:43:47;;;;;;;3.30;1.60;;;5.60;99.90;;;;;;6344340;22;20176;-93
2022/02/18 11:46:25;;;;;;;2.23;1.47;;;5.60;99.90;;;;;;6344727;22;20196;-94
2022/02/18 11:48:59;;;;;;;2.33;1.80;;;5.50;99.90;;;;;;6343456;22;20166;-91
2022/02/18 11:51:42;;;;;;;4.77;1.90;;;5.50;99.90;;;;;;6344003;22;20614;-92
2022/02/18 11:54:32;;;;;;;3.80;2.03;;;5.40;99.90;;;;;;6344015;22;20161;-92
2022/02/18 11:57:15;;;;;;;3.03;2.43;;;5.40;99.90;;;;;;6343449;22;20214;-92
2022/02/18 12:00:00;;;;;;;1.97;1.70;;;5.40;99.90;;;;;;6343334;22;20174;-93
2022/02/18 12:02:39;;;;;;;1.60;1.43;;;5.30;99.90;;;;;;6343650;22;20223;-92
2022/02/18 12:05:13;;;;;;;1.73;1.50;;;5.30;99.90;;;;;;6343421;22;20166;-92
2022/02/18 12:07:48;;;;;;;1.93;1.70;;;5.30;99.90;;;;;;6342887;22;20281;-93
2022/02/18 12:10:26;;;;;;;3.50;1.60;;;5.40;99.90;;;;;;6343546;22;20196;-92
2022/02/18 12:13:04;;;;;;;2.27;1.50;;;5.40;99.90;;;;;;6342725;22;20174;-93
2022/02/18 12:15:36;;;;;;;1.60;1.50;;;5.40;99.90;;;;;;6342983;22;20628;-92
2022/02/18 12:18:11;;;;;;;3.03;1.57;;;5.40;99.90;;;;;;6341589;22;20189;-94
2022/02/18 12:20:43;;;;;;;1.60;1.50;;;5.40;99.90;;;;;;6342968;22;20166;-93
2022/02/18 12:23:26;;;;;;;2.80;1.97;;;5.40;99.90;;;;;;6343051;22;20174;-93
2022/02/18 12:26:30;;;;;;;2.07;1.40;;;5.40;99.90;;;;;;6343438;22;20178;-93
2022/02/18 12:29:34;;;;;;;2.50;1.70;;;5.50;99.90;;;;;;6342648;22;20503;-93
2022/02/18 12:32:05;;;;;;;2.20;1.37;;;5.60;99.90;;;;;;6343193;22;20177;-92
2022/02/18 12:34:37;;;;;;;1.50;1.40;;;5.60;99.90;;;;;;6317797;22;20164;-91
2022/02/18 12:37:09;;;;;;;2.20;1.70;;;5.60;99.90;;;;;;6343725;22;20174;-92
2022/02/18 12:39:41;;;;;;;1.90;1.40;;;5.60;99.90;;;;;;6363035;22;20178;-90
2022/02/18 12:42:21;;;;;;;3.30;1.57;;;5.60;99.90;;;;;;6365875;22;20195;-94
2022/02/18 12:44:53;;;;;;;3.60;1.70;;;5.60;99.90;;;;;;6358278;22;20172;-92
2022/02/18 12:47:24;;;;;;;4.23;1.70;;;5.60;99.90;;;;;;6344408;22;20219;-93
2022/02/18 12:49:57;;;;;;;1.73;1.30;;;5.60;99.90;;;;;;6344788;22;20207;-93
2022/02/18 12:52:29;;;;;;;2.37;1.90;;;5.70;99.90;;;;;;6353405;22;20164;-93
2022/02/18 12:55:01;;;;;;;2.80;1.70;;;5.70;99.90;;;;;;6356605;22;20197;-93
2022/02/18 12:57:36;;;;;;;1.87;1.50;;;5.70;99.90;;;;;;6353564;22;20189;-94
2022/02/18 13:00:09;;;;;;;3.07;1.60;;;5.70;99.90;;;;;;6355041;22;20180;-93
2022/02/18 13:02:43;;;;;;;2.03;1.40;;;5.70;99.90;;;;;;6360564;22;20165;-91
2022/02/18 13:05:16;;;;;;;1.70;1.50;;;5.70;99.90;;;;;;6353828;22;20240;-92
2022/02/18 13:07:48;;;;;;;2.40;1.70;;;5.70;99.90;;;;;;6345033;22;20726;-93
2022/02/18 13:10:21;;;;;;;2.33;1.70;;;5.70;99.90;;;;;;6345624;22;20603;-92
2022/02/18 13:12:55;;;;;;;3.50;1.80;;;5.70;99.90;;;;;;6345083;22;20183;-92
2022/02/18 13:15:27;;;;;;;2.10;1.80;;;5.70;99.90;;;;;;6344971;22;20166;-92
2022/02/18 13:18:00;;;;;;;2.97;1.80;;;5.70;99.90;;;;;;6344546;22;20178;-93
2022/02/18 13:20:32;;;;;;;2.50;2.27;;;5.70;99.90;;;;;;6345843;22;20178;-93
2022/02/18 13:23:04;;;;;;;2.77;1.70;;;5.70;99.90;;;;;;6344532;22;20197;-93
2022/02/18 13:25:37;;;;;;;3.87;1.90;;;5.70;99.90;;;;;;6345656;22;20239;-93
2022/02/18 13:28:11;;;;;;;3.10;2.00;;;5.70;99.90;;;;;;6343877;22;20227;-93
2022/02/18 13:30:43;;;;;;;1.93;1.73;;;5.70;99.90;;;;;;6344688;22;20165;-94
2022/02/18 13:33:17;;;;;;;2.07;1.67;;;5.70;99.90;;;;;;6354423;22;20162;-93
2022/02/18 13:35:51;;;;;;;2.77;1.63;;;5.70;99.90;;;;;;6361585;22;20166;-93
2022/02/18 13:38:24;;;;;;;2.90;1.90;;;5.70;99.90;;;;;;6359848;22;20162;-93
2022/02/18 13:41:13;;;;;;;1.77;1.60;;;5.70;99.90;;;;;;6360217;22;20173;-93
2022/02/18 13:43:47;;;;;;;1.93;1.70;;;5.70;99.90;;;;;;6356019;22;20178;-92
2022/02/18 13:46:27;;;;;;;2.77;1.80;;;5.70;99.90;;;;;;6345234;22;20511;-92